Latest Coastal Weather Observations for Neptune Island

IDT60701

Issued at 3:52 am EDT Friday 5 March 2021 (issued every 10 minutes, with the page automatically refreshed every 10 minutes)

About coastal observations | Map of coastal stations | Coastal observations for TAS | Marine services | Other Formats
Station Details ID: 018115 Name: NEPTUNE ISLAND Lat: -35.34 Lon: 136.12 Height: 32.0 m
Data from the previous 72 hours. | See also: Recent months at Neptune Island
Date/Time
EDT
Wind Sea
Height
m
Swell Vis
km
Cloud Weather Temp
°C
Press
MSL
hPa
Rain since
9am
mm
Dir  Spd
kts
Gust
kts
Height
m
Period
s
Dir
05/03:30am ESE 14 18 - - - - - - - 15.9 1016.2 0.0
05/03:00am SE 16 20 - - - - - - - 16.1 1016.5 0.0
05/02:30am ESE 16 19 - - - - - - - 15.9 1017.0 0.0
05/02:00am SE 14 16 - - - - - - - 16.0 1017.6 0.0
05/01:30am SE 16 19 - - - - - - - 16.1 1017.7 0.0
05/01:00am SE 17 21 - - - - - - - 16.0 1017.9 0.0
05/12:30am SE 18 22 - - - - - - - 16.0 1018.1 0.0
05/12:00am SE 19 22 - - - - - - - 16.1 1018.1 0.0
 
Date/Time
EDT
Wind Sea
Height
m
Swell Vis
km
Cloud Weather Temp
°C
Press
MSL
hPa
Rain since
9am
mm
Dir  Spd
kts
Gust
kts
Height
m
Period
s
Dir
04/11:30pm SE 20 24 - - - - - - - 16.0 1018.3 0.0
04/11:00pm SE 20 25 - - - - - - - 16.1 1018.4 0.0
04/10:30pm SE 20 26 - - - - - - - 16.2 1018.4 0.0
04/10:00pm SSE 22 26 - - - - - - - 16.1 1018.3 0.0
04/09:30pm SSE 22 26 - - - - - - - 16.2 1018.0 0.0
04/09:00pm SSE 23 28 - - - - - - - 16.2 1017.7 0.0
04/08:30pm SSE 22 26 - - - - - - - 16.3 1017.7 0.0
04/08:00pm SSE 21 25 - - - - - - - 16.6 1017.8 0.0
04/07:30pm S 21 24 - - - - - - - 17.2 1017.9 0.0
04/07:00pm S 19 22 - - - - - - - 17.5 1018.0 0.0
04/06:30pm S 18 20 - - - - - - - 18.0 1018.2 0.0
04/06:00pm S 14 16 - - - - - - - 18.1 1018.4 0.0
04/05:30pm S 13 16 - - - - - - - 18.1 1018.6 0.0
04/05:00pm S 11 13 - - - - - - - 18.7 1018.6 0.0
04/04:30pm S 9 11 - - - - - - - 19.0 1018.6 0.0
04/04:00pm SSE 8 10 - - - - - - - 18.9 1018.8 0.0
04/03:30pm SSE 7 9 - - - - - - - 19.7 1018.9 0.0
04/03:00pm SSE 7 8 - - - - - - - 19.0 1019.5 0.0
04/02:30pm SSE 7 10 - - - - - - - 18.9 1019.7 0.0
04/02:00pm ESE 9 13 - - - - - - - 19.5 1019.9 0.0
04/01:30pm ESE 10 12 - - - - - - - 19.3 1020.2 0.0
04/01:00pm ESE 11 13 - - - - - - - 19.0 1020.6 0.0
04/12:30pm ESE 11 15 - - - - - - - 19.0 1020.7 0.0
04/12:00pm ESE 13 15 - - - - - - - 18.4 1020.8 0.0
04/11:30am ESE 12 16 - - - - - - - 17.8 1021.0 0.0
04/11:00am ESE 11 14 - - - - - - - 18.6 1021.2 0.0
04/10:30am ESE 12 16 - - - - - - - 17.5 1020.9 0.0
04/10:00am ESE 16 18 - - - - - - - 16.8 1020.6 0.0
04/09:30am ESE 15 18 - - - - - - - 16.6 1020.5 0.0
04/09:00am ESE 15 18 - - - - - - - 16.1 1020.5 0.0
04/08:30am ESE 13 16 - - - - - - - 15.5 1020.5 0.0
04/08:00am ESE 16 19 - - - - - - - 14.7 1020.0 0.0
04/07:30am ESE 13 16 - - - - - - - 14.5 1020.0 0.0
04/07:00am ESE 14 18 - - - - - - - 14.5 1019.7 0.0
04/06:30am ESE 14 17 - - - - - - - 14.6 1019.8 0.0
04/06:00am ESE 15 18 - - - - - - - 14.6 1019.5 0.0
04/05:30am SE 14 17 - - - - - - - 14.6 1019.7 0.0
04/05:00am ESE 15 17 - - - - - - - 14.6 1019.6 0.0
04/04:30am ESE 15 17 - - - - - - - 14.7 1019.7 0.0
04/04:00am ESE 18 22 - - - - - - - 14.8 1019.5 0.0
04/03:30am ESE 19 23 - - - - - - - 14.8 1019.4 0.0
04/03:00am ESE 18 22 - - - - - - - 14.6 1019.6 0.0
04/02:30am ESE 16 20 - - - - - - - 14.7 1020.2 0.0
04/02:00am ESE 19 22 - - - - - - - 14.8 1020.5 0.0
04/01:30am SE 19 23 - - - - - - - 15.0 1020.8 0.0
04/01:00am SE 21 26 - - - - - - - 15.2 1020.8 0.0
04/12:30am SE 21 26 - - - - - - - 15.3 1020.9 0.0
04/12:00am SE 23 28 - - - - - - - 15.4 1020.9 0.0
 
Date/Time
EDT
Wind Sea
Height
m
Swell Vis
km
Cloud Weather Temp
°C
Press
MSL
hPa
Rain since
9am
mm
Dir  Spd
kts
Gust
kts
Height
m
Period
s
Dir
03/11:30pm SE 21 26 - - - - - - - 15.4 1021.1 0.0
03/11:00pm SE 22 26 - - - - - - - 15.5 1021.3 0.0
03/10:30pm SE 22 29 - - - - - - - 15.9 1021.0 0.0
03/10:00pm SE 23 28 - - - - - - - 16.0 1020.9 0.0
03/09:30pm SSE 22 27 - - - - - - - 16.3 1020.5 0.0
03/09:00pm SSE 23 27 - - - - - - - 16.5 1020.3 0.0
03/08:30pm SSE 23 27 - - - - - - - 16.6 1019.9 0.0
03/08:00pm SSE 21 25 - - - - - - - 17.0 1019.8 0.0
03/07:30pm SSE 20 25 - - - - - - - 17.8 1019.8 0.0
03/07:00pm SSE 19 23 - - - - - - - 18.1 1019.7 0.0
03/06:30pm SSE 15 20 - - - - - - - 18.8 1019.7 0.0
03/06:00pm SSE 16 20 - - - - - - - 19.1 1019.5 0.0
03/05:30pm SSE 13 15 - - - - - - - 19.5 1019.7 0.0
03/05:00pm SSE 14 18 - - - - - - - 19.9 1019.8 0.0
03/04:30pm SE 13 16 - - - - - - - 20.0 1020.0 0.0
03/04:00pm SE 12 15 - - - - - - - 20.1 1020.2 0.0
03/03:30pm ESE 11 14 - - - - - - - 20.9 1020.3 0.0
03/03:00pm ESE 13 15 - - - - - - - 20.1 1020.5 0.0
03/02:30pm ESE 13 17 - - - - - - - 20.2 1020.8 0.0
03/02:00pm ESE 15 18 - - - - - - - 20.3 1020.9 0.0
03/01:30pm ESE 15 18 - - - - - - - 20.2 1021.2 0.0
03/01:00pm ESE 15 20 - - - - - - - 20.0 1021.6 0.0
03/12:30pm ESE 17 20 - - - - - - - 19.0 1021.7 0.0
03/12:00pm ESE 16 19 - - - - - - - 19.6 1021.8 0.0
03/11:30am ESE 15 19 - - - - - - - 18.9 1021.9 0.0
03/11:00am ESE 16 20 - - - - - - - 18.6 1021.8 0.0
03/10:30am ESE 17 22 - - - - - - - 17.6 1021.7 0.0
03/10:00am SE 16 21 - - - - - - - 17.5 1021.5 0.0
03/09:30am ESE 18 21 - - - - - - - 16.9 1021.3 -
03/09:00am ESE 17 21 - - - - - - - 16.3 1020.9 -
03/08:30am ESE 17 20 - - - - - - - 15.6 1020.5 -
03/08:00am SE 17 20 - - - - - - - 15.2 1020.1 -
03/07:30am ESE 17 21 - - - - - - - 15.1 1019.6 -
03/07:00am ESE 16 20 - - - - - - - 14.9 1019.2 -
03/06:30am ESE 18 21 - - - - - - - 15.0 1018.8 -
03/06:00am ESE 18 23 - - - - - - - 15.0 1018.5 -
03/05:30am ESE 19 24 - - - - - - - 15.1 1018.4 -
03/05:00am ESE 20 25 - - - - - - - 15.2 1018.2 -
03/04:30am SE 19 23 - - - - - - - 15.3 1018.2 -
03/04:00am ESE 18 23 - - - - - - - 15.2 1018.3 -
03/03:30am ESE 17 21 - - - - - - - 15.1 1018.4 0.0
03/03:00am ESE 19 24 - - - - - - - 15.3 1018.6 -
03/02:30am ESE 18 22 - - - - - - - 15.3 1019.3 -
03/02:00am SE 19 22 - - - - - - - 15.4 1019.7 -
03/01:30am ESE 17 22 - - - - - - - 15.6 1019.3 -
03/01:00am ESE 18 22 - - - - - - - 15.6 1019.0 -
03/12:30am ESE 18 22 - - - - - - - 15.6 1018.7 -
03/12:00am ESE 20 24 - - - - - - - 15.6 1019.0 -
 
Date/Time
EDT
Wind Sea
Height
m
Swell Vis
km
Cloud Weather Temp
°C
Press
MSL
hPa
Rain since
9am
mm
Dir  Spd
kts
Gust
kts
Height
m
Period
s
Dir
02/11:30pm ESE 22 27 - - - - - - - 15.7 1018.8 -
02/11:00pm ESE 23 27 - - - - - - - 15.6 1018.7 -
02/10:30pm SE 22 27 - - - - - - - 15.7 1018.8 -
02/10:00pm SE 21 27 - - - - - - - 15.8 1018.9 -
02/09:30pm SE 22 26 - - - - - - - 16.1 1018.8 -
02/09:00pm SE 22 28 - - - - - - - 16.4 1018.7 -
02/08:30pm SE 22 26 - - - - - - - 16.8 1018.3 -
02/08:00pm SE 16 23 - - - - - - - 17.3 1018.0 -
02/07:30pm ESE 14 17 - - - - - - - 17.5 1018.3 -
02/07:00pm E 15 20 - - - - - - - 18.1 1017.8 -
02/06:30pm ESE 13 17 - - - - - - - 18.8 1017.6 -
02/06:00pm ESE 15 18 - - - - - - - 18.2 1017.3 -
02/05:30pm E 13 15 - - - - - - - 18.3 1017.9 -
02/04:00pm ENE 14 17 - - - - - - - 18.7 1018.5 0.0
02/03:30pm E 14 16 - - - - - - - 19.8 1018.8 0.0
02/03:00pm E 15 19 - - - - - - - 20.1 1018.7 0.0
02/02:30pm E 16 21 - - - - - - - 19.6 1018.8 0.0
02/02:00pm E 19 22 - - - - - - - 19.2 1018.8 0.0
02/01:30pm ESE 20 26 - - - - - - - 19.1 1018.8 0.0
02/01:00pm E 21 26 - - - - - - - 18.9 1018.9 0.0
02/12:30pm ESE 21 26 - - - - - - - 18.1 1019.3 0.0
02/12:00pm ESE 22 26 - - - - - - - 17.6 1019.3 0.0
02/11:30am ESE 22 27 - - - - - - - 17.1 1019.3 0.0
02/11:00am ESE 22 28 - - - - - - - 16.8 1019.6 0.0
02/10:30am ESE 21 26 - - - - - - - 16.7 1019.7 0.0
02/10:00am E 20 25 - - - - - - - 16.6 1019.8 0.0
02/09:30am E 20 25 - - - - - - - 16.0 1019.8 0.0
02/09:00am ESE 21 25 - - - - - - - 15.6 1019.5 0.0
02/08:30am ESE 22 27 - - - - - - - 15.3 1019.2 0.0
02/08:00am ESE 23 29 - - - - - - - 15.0 1018.7 0.0
02/07:30am ESE 26 31 - - - - - - - 14.9 1017.8 0.0
02/07:00am ESE 26 31 - - - - - - - 14.9 1017.7 0.0
02/06:30am ESE 25 30 - - - - - - - 14.7 1017.7 0.0
02/06:00am ESE 26 30 - - - - - - - 14.9 1017.6 0.0
02/05:30am ESE 24 29 - - - - - - - 14.8 1017.8 0.0
02/05:00am ESE 23 29 - - - - - - - 14.9 1018.0 0.0
02/04:30am ESE 22 28 - - - - - - - 14.9 1018.2 0.0

Other formats

Comma delimited format used in spreadsheet applications
http://www.bom.gov.au/fwo/IDT60701/IDT60701.94804.axf

JavaScript Object Notation format (JSON) in row-major order
http://www.bom.gov.au/fwo/IDT60701/IDT60701.94804.json

Data quality

Most of these data are generated automatically and are frequently updated. Quality checks on data are not normally performed. It is possible for incorrect values to appear. Refer to information at About Latest Weather Observations and please check the disclaimer before using these data.